sensor_id;sensor_type;location;lat;lon;timestamp;temperature;humidity
23544;DHT22;11950;51.230;4.012;2023-08-06T00:00:50;17.30;99.90
23544;DHT22;11950;51.230;4.012;2023-08-06T00:03:16;17.30;99.90
23544;DHT22;11950;51.230;4.012;2023-08-06T00:05:43;17.20;99.90
23544;DHT22;11950;51.230;4.012;2023-08-06T00:08:09;17.20;99.90
23544;DHT22;11950;51.230;4.012;2023-08-06T00:10:35;17.20;99.90
23544;DHT22;11950;51.230;4.012;2023-08-06T00:13:02;17.30;99.90
23544;DHT22;11950;51.230;4.012;2023-08-06T00:15:28;17.30;99.90
23544;DHT22;11950;51.230;4.012;2023-08-06T00:17:54;17.30;99.90
23544;DHT22;11950;51.230;4.012;2023-08-06T00:20:20;17.30;99.90
23544;DHT22;11950;51.230;4.012;2023-08-06T00:22:46;17.30;99.90
23544;DHT22;11950;51.230;4.012;2023-08-06T00:25:13;17.30;99.90
23544;DHT22;11950;51.230;4.012;2023-08-06T00:27:39;17.30;99.90
23544;DHT22;11950;51.230;4.012;2023-08-06T00:30:06;17.30;99.90
23544;DHT22;11950;51.230;4.012;2023-08-06T00:32:32;17.30;99.90
23544;DHT22;11950;51.230;4.012;2023-08-06T00:34:58;17.30;99.90
23544;DHT22;11950;51.230;4.012;2023-08-06T00:37:24;17.30;99.90
23544;DHT22;11950;51.230;4.012;2023-08-06T00:39:51;17.30;99.90
23544;DHT22;11950;51.230;4.012;2023-08-06T00:42:17;17.30;99.90
23544;DHT22;11950;51.230;4.012;2023-08-06T00:44:46;17.20;99.90
23544;DHT22;11950;51.230;4.012;2023-08-06T00:47:13;17.30;99.90
23544;DHT22;11950;51.230;4.012;2023-08-06T00:49:40;17.30;99.90
23544;DHT22;11950;51.230;4.012;2023-08-06T00:52:07;17.30;99.90
23544;DHT22;11950;51.230;4.012;2023-08-06T00:54:36;17.30;99.90
23544;DHT22;11950;51.230;4.012;2023-08-06T00:57:04;17.40;99.90
23544;DHT22;11950;51.230;4.012;2023-08-06T00:59:31;17.40;99.90
23544;DHT22;11950;51.230;4.012;2023-08-06T01:01:57;17.40;99.90
23544;DHT22;11950;51.230;4.012;2023-08-06T01:04:24;17.40;99.90
23544;DHT22;11950;51.230;4.012;2023-08-06T01:15:14;17.40;99.90
23544;DHT22;11950;51.230;4.012;2023-08-06T01:17:42;17.40;99.90
23544;DHT22;11950;51.230;4.012;2023-08-06T01:20:08;17.40;99.90
23544;DHT22;11950;51.230;4.012;2023-08-06T01:22:35;17.40;99.90
23544;DHT22;11950;51.230;4.012;2023-08-06T01:25:01;17.30;99.90
23544;DHT22;11950;51.230;4.012;2023-08-06T01:27:49;17.40;99.90
23544;DHT22;11950;51.230;4.012;2023-08-06T01:30:36;17.40;99.90
23544;DHT22;11950;51.230;4.012;2023-08-06T01:33:05;17.40;99.90
23544;DHT22;11950;51.230;4.012;2023-08-06T01:35:35;17.40;99.90
23544;DHT22;11950;51.230;4.012;2023-08-06T01:38:03;17.40;99.90
23544;DHT22;11950;51.230;4.012;2023-08-06T01:40:30;17.40;99.90
23544;DHT22;11950;51.230;4.012;2023-08-06T01:42:58;17.40;99.90
23544;DHT22;11950;51.230;4.012;2023-08-06T01:45:24;17.40;99.90
23544;DHT22;11950;51.230;4.012;2023-08-06T01:47:50;17.40;99.90
23544;DHT22;11950;51.230;4.012;2023-08-06T01:50:17;17.30;99.90
23544;DHT22;11950;51.230;4.012;2023-08-06T01:52:44;17.40;99.90
23544;DHT22;11950;51.230;4.012;2023-08-06T01:55:11;17.40;99.90
23544;DHT22;11950;51.230;4.012;2023-08-06T01:57:37;17.40;99.90
23544;DHT22;11950;51.230;4.012;2023-08-06T02:00:04;17.40;99.90
23544;DHT22;11950;51.230;4.012;2023-08-06T02:02:39;17.40;99.90
23544;DHT22;11950;51.230;4.012;2023-08-06T02:05:06;17.40;99.90
23544;DHT22;11950;51.230;4.012;2023-08-06T02:07:33;17.40;99.90
23544;DHT22;11950;51.230;4.012;2023-08-06T02:09:59;17.40;99.90
23544;DHT22;11950;51.230;4.012;2023-08-06T02:12:25;17.40;99.90
23544;DHT22;11950;51.230;4.012;2023-08-06T02:14:51;17.40;99.90
23544;DHT22;11950;51.230;4.012;2023-08-06T02:17:18;17.40;99.90
23544;DHT22;11950;51.230;4.012;2023-08-06T02:19:44;17.40;99.90
23544;DHT22;11950;51.230;4.012;2023-08-06T02:22:10;17.40;99.90
23544;DHT22;11950;51.230;4.012;2023-08-06T02:24:36;17.40;99.90
23544;DHT22;11950;51.230;4.012;2023-08-06T02:27:03;17.30;99.90
23544;DHT22;11950;51.230;4.012;2023-08-06T02:29:29;17.30;99.90
23544;DHT22;11950;51.230;4.012;2023-08-06T02:31:55;17.40;99.90
23544;DHT22;11950;51.230;4.012;2023-08-06T02:34:21;17.30;99.90
23544;DHT22;11950;51.230;4.012;2023-08-06T02:36:48;17.40;99.90
23544;DHT22;11950;51.230;4.012;2023-08-06T02:39:14;17.30;99.90
23544;DHT22;11950;51.230;4.012;2023-08-06T02:41:40;17.40;99.90
23544;DHT22;11950;51.230;4.012;2023-08-06T02:44:06;17.40;99.90
23544;DHT22;11950;51.230;4.012;2023-08-06T02:46:32;17.40;99.90
23544;DHT22;11950;51.230;4.012;2023-08-06T02:48:58;17.40;99.90
23544;DHT22;11950;51.230;4.012;2023-08-06T02:51:25;17.40;99.90
23544;DHT22;11950;51.230;4.012;2023-08-06T02:53:51;17.40;99.90
23544;DHT22;11950;51.230;4.012;2023-08-06T02:56:19;17.40;99.90
23544;DHT22;11950;51.230;4.012;2023-08-06T02:58:57;17.40;99.90
23544;DHT22;11950;51.230;4.012;2023-08-06T03:01:44;17.40;99.90
23544;DHT22;11950;51.230;4.012;2023-08-06T03:04:17;17.40;99.90
23544;DHT22;11950;51.230;4.012;2023-08-06T03:06:45;17.40;99.90
23544;DHT22;11950;51.230;4.012;2023-08-06T03:09:12;17.40;99.90
23544;DHT22;11950;51.230;4.012;2023-08-06T03:11:39;17.40;99.90
23544;DHT22;11950;51.230;4.012;2023-08-06T03:14:09;17.40;99.90
23544;DHT22;11950;51.230;4.012;2023-08-06T03:16:36;17.40;99.90
23544;DHT22;11950;51.230;4.012;2023-08-06T03:19:03;17.40;99.90
23544;DHT22;11950;51.230;4.012;2023-08-06T03:21:30;17.40;99.90
23544;DHT22;11950;51.230;4.012;2023-08-06T03:23:57;17.40;99.90
23544;DHT22;11950;51.230;4.012;2023-08-06T03:26:26;17.30;99.90
23544;DHT22;11950;51.230;4.012;2023-08-06T03:28:52;17.30;99.90
23544;DHT22;11950;51.230;4.012;2023-08-06T03:31:23;17.30;99.90
23544;DHT22;11950;51.230;4.012;2023-08-06T03:33:49;17.20;99.90
23544;DHT22;11950;51.230;4.012;2023-08-06T03:36:19;17.10;99.90
23544;DHT22;11950;51.230;4.012;2023-08-06T03:38:46;17.10;99.90
23544;DHT22;11950;51.230;4.012;2023-08-06T03:41:15;17.10;99.90
23544;DHT22;11950;51.230;4.012;2023-08-06T03:43:42;17.10;99.90
23544;DHT22;11950;51.230;4.012;2023-08-06T03:46:13;17.00;99.90
23544;DHT22;11950;51.230;4.012;2023-08-06T03:48:40;17.00;99.90
23544;DHT22;11950;51.230;4.012;2023-08-06T03:51:06;17.00;99.90
23544;DHT22;11950;51.230;4.012;2023-08-06T03:53:32;16.90;99.90
23544;DHT22;11950;51.230;4.012;2023-08-06T03:55:59;16.90;99.90
23544;DHT22;11950;51.230;4.012;2023-08-06T03:58:26;16.90;99.90
23544;DHT22;11950;51.230;4.012;2023-08-06T04:00:59;16.80;99.90
23544;DHT22;11950;51.230;4.012;2023-08-06T04:03:28;16.80;99.90
23544;DHT22;11950;51.230;4.012;2023-08-06T04:05:55;16.80;99.90
23544;DHT22;11950;51.230;4.012;2023-08-06T04:08:21;16.70;99.90
23544;DHT22;11950;51.230;4.012;2023-08-06T04:10:52;16.70;99.90
23544;DHT22;11950;51.230;4.012;2023-08-06T04:13:18;16.70;99.90
23544;DHT22;11950;51.230;4.012;2023-08-06T04:15:45;16.70;99.90
23544;DHT22;11950;51.230;4.012;2023-08-06T04:18:11;16.70;99.90
23544;DHT22;11950;51.230;4.012;2023-08-06T04:20:47;16.70;99.90
23544;DHT22;11950;51.230;4.012;2023-08-06T04:23:15;16.70;99.90
23544;DHT22;11950;51.230;4.012;2023-08-06T04:25:42;16.80;99.90
23544;DHT22;11950;51.230;4.012;2023-08-06T04:28:09;16.70;99.90
23544;DHT22;11950;51.230;4.012;2023-08-06T04:30:37;16.70;99.90
23544;DHT22;11950;51.230;4.012;2023-08-06T04:33:03;16.70;99.90
23544;DHT22;11950;51.230;4.012;2023-08-06T04:35:30;16.70;99.90
23544;DHT22;11950;51.230;4.012;2023-08-06T04:37:56;16.80;99.90
23544;DHT22;11950;51.230;4.012;2023-08-06T04:40:23;16.80;99.90
23544;DHT22;11950;51.230;4.012;2023-08-06T04:42:49;16.80;99.90
23544;DHT22;11950;51.230;4.012;2023-08-06T04:45:15;16.70;99.90
23544;DHT22;11950;51.230;4.012;2023-08-06T04:47:41;16.70;99.90
23544;DHT22;11950;51.230;4.012;2023-08-06T04:50:08;16.70;99.90
23544;DHT22;11950;51.230;4.012;2023-08-06T04:52:34;16.70;99.90
23544;DHT22;11950;51.230;4.012;2023-08-06T04:55:01;16.70;99.90
23544;DHT22;11950;51.230;4.012;2023-08-06T04:57:27;16.70;99.90
23544;DHT22;11950;51.230;4.012;2023-08-06T04:59:53;16.80;99.90
23544;DHT22;11950;51.230;4.012;2023-08-06T05:02:19;16.70;99.90
23544;DHT22;11950;51.230;4.012;2023-08-06T05:04:45;16.70;99.90
23544;DHT22;11950;51.230;4.012;2023-08-06T05:07:12;16.60;99.90
23544;DHT22;11950;51.230;4.012;2023-08-06T05:09:38;16.70;99.90
23544;DHT22;11950;51.230;4.012;2023-08-06T05:12:04;16.60;99.90
23544;DHT22;11950;51.230;4.012;2023-08-06T05:14:31;16.60;99.90
23544;DHT22;11950;51.230;4.012;2023-08-06T05:16:57;16.60;99.90
23544;DHT22;11950;51.230;4.012;2023-08-06T05:19:23;16.60;99.90
23544;DHT22;11950;51.230;4.012;2023-08-06T05:21:49;16.60;99.90
23544;DHT22;11950;51.230;4.012;2023-08-06T05:24:16;16.50;99.90
23544;DHT22;11950;51.230;4.012;2023-08-06T05:26:42;16.50;99.90
23544;DHT22;11950;51.230;4.012;2023-08-06T05:29:12;16.50;99.90
23544;DHT22;11950;51.230;4.012;2023-08-06T05:31:38;16.60;99.90
23544;DHT22;11950;51.230;4.012;2023-08-06T05:34:04;16.50;99.90
23544;DHT22;11950;51.230;4.012;2023-08-06T05:36:31;16.50;99.90
23544;DHT22;11950;51.230;4.012;2023-08-06T05:38:57;16.50;99.90
23544;DHT22;11950;51.230;4.012;2023-08-06T05:41:23;16.50;99.90
23544;DHT22;11950;51.230;4.012;2023-08-06T05:43:49;16.50;99.90
23544;DHT22;11950;51.230;4.012;2023-08-06T05:46:15;16.50;99.90
23544;DHT22;11950;51.230;4.012;2023-08-06T05:48:41;16.50;99.90
23544;DHT22;11950;51.230;4.012;2023-08-06T05:51:08;16.50;99.90
23544;DHT22;11950;51.230;4.012;2023-08-06T05:53:34;16.50;99.90
23544;DHT22;11950;51.230;4.012;2023-08-06T05:56:00;16.50;99.90
23544;DHT22;11950;51.230;4.012;2023-08-06T05:58:26;16.50;99.90
23544;DHT22;11950;51.230;4.012;2023-08-06T06:00:55;16.50;99.90
23544;DHT22;11950;51.230;4.012;2023-08-06T06:03:21;16.50;99.90
23544;DHT22;11950;51.230;4.012;2023-08-06T06:05:47;16.50;99.90
23544;DHT22;11950;51.230;4.012;2023-08-06T06:08:13;16.50;99.90
23544;DHT22;11950;51.230;4.012;2023-08-06T06:10:39;16.50;99.90
23544;DHT22;11950;51.230;4.012;2023-08-06T06:13:06;16.50;99.90
23544;DHT22;11950;51.230;4.012;2023-08-06T06:15:32;16.50;99.90
23544;DHT22;11950;51.230;4.012;2023-08-06T06:17:58;16.50;99.90
23544;DHT22;11950;51.230;4.012;2023-08-06T06:20:24;16.50;99.90
23544;DHT22;11950;51.230;4.012;2023-08-06T06:22:51;16.50;99.90
23544;DHT22;11950;51.230;4.012;2023-08-06T06:25:17;16.50;99.90
23544;DHT22;11950;51.230;4.012;2023-08-06T06:27:43;16.60;99.90
23544;DHT22;11950;51.230;4.012;2023-08-06T06:30:10;16.60;99.90
23544;DHT22;11950;51.230;4.012;2023-08-06T06:32:38;16.50;99.90
23544;DHT22;11950;51.230;4.012;2023-08-06T06:35:06;16.60;99.90
23544;DHT22;11950;51.230;4.012;2023-08-06T06:37:32;16.60;99.90
23544;DHT22;11950;51.230;4.012;2023-08-06T06:39:58;16.70;99.90
23544;DHT22;11950;51.230;4.012;2023-08-06T06:42:25;16.60;99.90
23544;DHT22;11950;51.230;4.012;2023-08-06T06:44:58;16.70;99.90
23544;DHT22;11950;51.230;4.012;2023-08-06T06:47:25;16.70;99.90
23544;DHT22;11950;51.230;4.012;2023-08-06T06:49:52;16.70;99.90
23544;DHT22;11950;51.230;4.012;2023-08-06T06:52:18;16.70;99.90
23544;DHT22;11950;51.230;4.012;2023-08-06T06:54:44;16.60;99.90
23544;DHT22;11950;51.230;4.012;2023-08-06T06:57:10;16.60;99.90
23544;DHT22;11950;51.230;4.012;2023-08-06T06:59:36;16.70;99.90
23544;DHT22;11950;51.230;4.012;2023-08-06T07:02:04;16.70;99.90
23544;DHT22;11950;51.230;4.012;2023-08-06T07:04:30;16.70;99.90
23544;DHT22;11950;51.230;4.012;2023-08-06T07:06:56;16.60;99.90
23544;DHT22;11950;51.230;4.012;2023-08-06T07:09:23;16.70;99.90
23544;DHT22;11950;51.230;4.012;2023-08-06T07:11:49;16.70;99.90
23544;DHT22;11950;51.230;4.012;2023-08-06T07:14:15;16.80;99.90
23544;DHT22;11950;51.230;4.012;2023-08-06T07:16:41;16.80;99.90
23544;DHT22;11950;51.230;4.012;2023-08-06T07:19:08;16.80;99.90
23544;DHT22;11950;51.230;4.012;2023-08-06T07:21:34;16.80;99.90
23544;DHT22;11950;51.230;4.012;2023-08-06T07:24:00;16.80;99.90
23544;DHT22;11950;51.230;4.012;2023-08-06T07:26:26;16.90;99.90
23544;DHT22;11950;51.230;4.012;2023-08-06T07:28:53;16.90;99.90
23544;DHT22;11950;51.230;4.012;2023-08-06T07:31:19;16.80;99.90
23544;DHT22;11950;51.230;4.012;2023-08-06T07:33:45;16.80;99.90
23544;DHT22;11950;51.230;4.012;2023-08-06T07:36:13;16.90;99.90
23544;DHT22;11950;51.230;4.012;2023-08-06T07:38:40;16.90;99.90
23544;DHT22;11950;51.230;4.012;2023-08-06T07:41:06;16.80;99.90
23544;DHT22;11950;51.230;4.012;2023-08-06T07:43:32;16.80;99.90
23544;DHT22;11950;51.230;4.012;2023-08-06T07:45:59;16.90;99.90
23544;DHT22;11950;51.230;4.012;2023-08-06T07:48:27;16.80;99.90
23544;DHT22;11950;51.230;4.012;2023-08-06T07:50:56;16.80;99.90
23544;DHT22;11950;51.230;4.012;2023-08-06T07:53:24;16.90;99.90
23544;DHT22;11950;51.230;4.012;2023-08-06T07:55:53;16.90;99.90
23544;DHT22;11950;51.230;4.012;2023-08-06T07:58:20;17.00;99.90
23544;DHT22;11950;51.230;4.012;2023-08-06T08:00:47;16.90;99.90
23544;DHT22;11950;51.230;4.012;2023-08-06T08:03:14;16.90;99.90
23544;DHT22;11950;51.230;4.012;2023-08-06T08:05:44;16.90;99.90
23544;DHT22;11950;51.230;4.012;2023-08-06T08:08:10;16.90;99.90
23544;DHT22;11950;51.230;4.012;2023-08-06T08:10:37;16.90;99.90
23544;DHT22;11950;51.230;4.012;2023-08-06T08:13:05;16.90;99.90
23544;DHT22;11950;51.230;4.012;2023-08-06T08:15:32;16.90;99.90
23544;DHT22;11950;51.230;4.012;2023-08-06T08:17:59;16.90;99.90
23544;DHT22;11950;51.230;4.012;2023-08-06T08:20:26;16.90;99.90
23544;DHT22;11950;51.230;4.012;2023-08-06T08:22:58;16.90;99.90
23544;DHT22;11950;51.230;4.012;2023-08-06T08:25:25;16.80;99.90
23544;DHT22;11950;51.230;4.012;2023-08-06T08:27:52;16.80;99.90
23544;DHT22;11950;51.230;4.012;2023-08-06T08:30:18;16.70;99.90
23544;DHT22;11950;51.230;4.012;2023-08-06T08:32:44;16.70;99.90
23544;DHT22;11950;51.230;4.012;2023-08-06T08:35:10;16.70;99.90
23544;DHT22;11950;51.230;4.012;2023-08-06T08:37:39;16.70;99.90
23544;DHT22;11950;51.230;4.012;2023-08-06T08:40:08;16.80;99.90
23544;DHT22;11950;51.230;4.012;2023-08-06T08:42:35;16.90;99.90
23544;DHT22;11950;51.230;4.012;2023-08-06T08:45:04;16.90;99.90
23544;DHT22;11950;51.230;4.012;2023-08-06T08:47:30;16.90;99.90
23544;DHT22;11950;51.230;4.012;2023-08-06T08:49:57;16.90;99.90
23544;DHT22;11950;51.230;4.012;2023-08-06T08:52:25;16.90;99.90
23544;DHT22;11950;51.230;4.012;2023-08-06T08:54:54;17.00;99.90
23544;DHT22;11950;51.230;4.012;2023-08-06T08:57:21;16.90;99.90
23544;DHT22;11950;51.230;4.012;2023-08-06T08:59:47;16.90;99.90
23544;DHT22;11950;51.230;4.012;2023-08-06T09:02:14;16.90;99.90
23544;DHT22;11950;51.230;4.012;2023-08-06T09:04:42;16.90;99.90
23544;DHT22;11950;51.230;4.012;2023-08-06T09:07:13;16.90;99.90
23544;DHT22;11950;51.230;4.012;2023-08-06T09:09:43;16.90;99.90
23544;DHT22;11950;51.230;4.012;2023-08-06T09:12:14;16.90;99.90
23544;DHT22;11950;51.230;4.012;2023-08-06T09:14:41;16.90;99.90
23544;DHT22;11950;51.230;4.012;2023-08-06T09:17:08;17.00;99.90
23544;DHT22;11950;51.230;4.012;2023-08-06T09:19:37;17.00;99.90
23544;DHT22;11950;51.230;4.012;2023-08-06T09:22:03;17.00;99.90
23544;DHT22;11950;51.230;4.012;2023-08-06T09:24:30;17.00;99.90
23544;DHT22;11950;51.230;4.012;2023-08-06T09:26:57;17.00;99.90
23544;DHT22;11950;51.230;4.012;2023-08-06T09:29:24;17.00;99.90
23544;DHT22;11950;51.230;4.012;2023-08-06T09:31:51;16.90;99.90
23544;DHT22;11950;51.230;4.012;2023-08-06T09:34:21;16.80;99.90
23544;DHT22;11950;51.230;4.012;2023-08-06T09:36:48;16.80;99.90
23544;DHT22;11950;51.230;4.012;2023-08-06T09:39:19;16.80;99.90
23544;DHT22;11950;51.230;4.012;2023-08-06T09:41:46;16.90;99.90
23544;DHT22;11950;51.230;4.012;2023-08-06T09:44:19;16.90;99.90
23544;DHT22;11950;51.230;4.012;2023-08-06T09:46:52;16.90;99.90
23544;DHT22;11950;51.230;4.012;2023-08-06T09:49:25;16.80;99.90
23544;DHT22;11950;51.230;4.012;2023-08-06T09:51:51;16.80;99.90
23544;DHT22;11950;51.230;4.012;2023-08-06T09:54:19;16.90;99.90
23544;DHT22;11950;51.230;4.012;2023-08-06T09:56:46;16.80;99.90
23544;DHT22;11950;51.230;4.012;2023-08-06T09:59:14;16.90;99.90
23544;DHT22;11950;51.230;4.012;2023-08-06T10:01:41;16.90;99.90
23544;DHT22;11950;51.230;4.012;2023-08-06T10:04:08;16.90;99.90
23544;DHT22;11950;51.230;4.012;2023-08-06T10:06:35;17.00;99.90
23544;DHT22;11950;51.230;4.012;2023-08-06T10:09:04;17.00;99.90
23544;DHT22;11950;51.230;4.012;2023-08-06T10:11:31;16.90;99.90
23544;DHT22;11950;51.230;4.012;2023-08-06T10:14:06;17.00;99.90
23544;DHT22;11950;51.230;4.012;2023-08-06T10:16:34;16.90;99.90
23544;DHT22;11950;51.230;4.012;2023-08-06T10:19:03;16.90;99.90
23544;DHT22;11950;51.230;4.012;2023-08-06T10:21:31;16.90;99.90
23544;DHT22;11950;51.230;4.012;2023-08-06T10:23:57;16.90;99.90
23544;DHT22;11950;51.230;4.012;2023-08-06T10:26:28;16.90;99.90
23544;DHT22;11950;51.230;4.012;2023-08-06T10:28:55;16.80;99.90
23544;DHT22;11950;51.230;4.012;2023-08-06T10:31:52;16.90;99.90
23544;DHT22;11950;51.230;4.012;2023-08-06T10:34:19;16.80;99.90
23544;DHT22;11950;51.230;4.012;2023-08-06T10:36:45;16.80;99.90
23544;DHT22;11950;51.230;4.012;2023-08-06T10:39:14;16.80;99.90
23544;DHT22;11950;51.230;4.012;2023-08-06T10:41:44;16.80;99.90
23544;DHT22;11950;51.230;4.012;2023-08-06T10:44:11;16.80;99.90
23544;DHT22;11950;51.230;4.012;2023-08-06T10:46:38;16.80;99.90
23544;DHT22;11950;51.230;4.012;2023-08-06T10:49:04;16.80;99.90
23544;DHT22;11950;51.230;4.012;2023-08-06T10:51:30;16.80;99.90
23544;DHT22;11950;51.230;4.012;2023-08-06T10:53:57;16.90;99.90
23544;DHT22;11950;51.230;4.012;2023-08-06T10:56:25;16.90;99.90
23544;DHT22;11950;51.230;4.012;2023-08-06T10:58:54;16.80;99.90
23544;DHT22;11950;51.230;4.012;2023-08-06T11:01:24;16.80;99.90
23544;DHT22;11950;51.230;4.012;2023-08-06T11:03:54;16.80;99.90
23544;DHT22;11950;51.230;4.012;2023-08-06T11:06:22;16.80;99.90
23544;DHT22;11950;51.230;4.012;2023-08-06T11:08:50;16.70;99.90
23544;DHT22;11950;51.230;4.012;2023-08-06T11:11:17;16.80;99.90
23544;DHT22;11950;51.230;4.012;2023-08-06T11:13:47;16.80;99.90
23544;DHT22;11950;51.230;4.012;2023-08-06T11:16:23;16.70;99.90
23544;DHT22;11950;51.230;4.012;2023-08-06T11:18:53;16.80;99.90
23544;DHT22;11950;51.230;4.012;2023-08-06T11:21:21;16.80;99.90
23544;DHT22;11950;51.230;4.012;2023-08-06T11:23:47;16.90;99.90
23544;DHT22;11950;51.230;4.012;2023-08-06T11:26:21;16.90;99.90
23544;DHT22;11950;51.230;4.012;2023-08-06T11:28:49;16.90;99.90
23544;DHT22;11950;51.230;4.012;2023-08-06T11:31:23;16.90;99.90
23544;DHT22;11950;51.230;4.012;2023-08-06T11:33:55;16.90;99.90
23544;DHT22;11950;51.230;4.012;2023-08-06T11:36:31;16.90;99.90
23544;DHT22;11950;51.230;4.012;2023-08-06T11:39:02;16.90;99.90
23544;DHT22;11950;51.230;4.012;2023-08-06T11:41:32;16.80;99.90
23544;DHT22;11950;51.230;4.012;2023-08-06T11:43:59;16.80;99.90
23544;DHT22;11950;51.230;4.012;2023-08-06T11:46:26;16.80;99.90
23544;DHT22;11950;51.230;4.012;2023-08-06T11:48:56;16.80;99.90
23544;DHT22;11950;51.230;4.012;2023-08-06T11:51:23;16.80;99.90
23544;DHT22;11950;51.230;4.012;2023-08-06T11:53:57;16.80;99.90
23544;DHT22;11950;51.230;4.012;2023-08-06T11:56:25;16.80;99.90
23544;DHT22;11950;51.230;4.012;2023-08-06T11:58:52;16.80;99.90
23544;DHT22;11950;51.230;4.012;2023-08-06T12:01:18;17.00;99.90
23544;DHT22;11950;51.230;4.012;2023-08-06T12:03:45;16.90;99.90
23544;DHT22;11950;51.230;4.012;2023-08-06T12:06:11;16.90;99.90
23544;DHT22;11950;51.230;4.012;2023-08-06T12:08:37;16.80;99.90
23544;DHT22;11950;51.230;4.012;2023-08-06T12:11:04;16.80;99.90
23544;DHT22;11950;51.230;4.012;2023-08-06T12:13:30;16.80;99.90
23544;DHT22;11950;51.230;4.012;2023-08-06T12:15:56;16.80;99.90
23544;DHT22;11950;51.230;4.012;2023-08-06T12:18:23;16.80;99.90
23544;DHT22;11950;51.230;4.012;2023-08-06T12:20:49;16.90;99.90
23544;DHT22;11950;51.230;4.012;2023-08-06T12:23:16;16.90;99.90
23544;DHT22;11950;51.230;4.012;2023-08-06T12:25:42;16.80;99.90
23544;DHT22;11950;51.230;4.012;2023-08-06T12:28:10;16.70;99.90
23544;DHT22;11950;51.230;4.012;2023-08-06T12:30:38;16.70;99.90
23544;DHT22;11950;51.230;4.012;2023-08-06T12:33:08;16.70;99.90
23544;DHT22;11950;51.230;4.012;2023-08-06T12:35:35;16.80;99.90
23544;DHT22;11950;51.230;4.012;2023-08-06T12:38:01;16.90;99.90
23544;DHT22;11950;51.230;4.012;2023-08-06T12:40:28;16.90;99.90
23544;DHT22;11950;51.230;4.012;2023-08-06T12:42:54;16.80;99.90
23544;DHT22;11950;51.230;4.012;2023-08-06T12:45:20;16.70;99.90
23544;DHT22;11950;51.230;4.012;2023-08-06T12:47:47;16.70;99.90
23544;DHT22;11950;51.230;4.012;2023-08-06T12:50:14;16.70;99.90
23544;DHT22;11950;51.230;4.012;2023-08-06T12:52:41;16.60;99.90
23544;DHT22;11950;51.230;4.012;2023-08-06T12:55:07;16.60;99.90
23544;DHT22;11950;51.230;4.012;2023-08-06T12:57:33;16.60;99.90
23544;DHT22;11950;51.230;4.012;2023-08-06T13:00:01;16.60;99.90
23544;DHT22;11950;51.230;4.012;2023-08-06T13:02:27;16.50;99.90
23544;DHT22;11950;51.230;4.012;2023-08-06T13:04:55;16.50;99.90
23544;DHT22;11950;51.230;4.012;2023-08-06T13:07:22;16.50;99.90
23544;DHT22;11950;51.230;4.012;2023-08-06T13:09:48;16.40;99.90
23544;DHT22;11950;51.230;4.012;2023-08-06T13:12:14;16.40;99.90
23544;DHT22;11950;51.230;4.012;2023-08-06T13:14:40;16.40;99.90
23544;DHT22;11950;51.230;4.012;2023-08-06T13:17:07;16.40;99.90
23544;DHT22;11950;51.230;4.012;2023-08-06T13:19:34;16.30;99.90
23544;DHT22;11950;51.230;4.012;2023-08-06T13:22:05;16.30;99.90
23544;DHT22;11950;51.230;4.012;2023-08-06T13:24:34;16.30;99.90
23544;DHT22;11950;51.230;4.012;2023-08-06T13:27:01;16.20;99.90
23544;DHT22;11950;51.230;4.012;2023-08-06T13:29:27;16.20;99.90
23544;DHT22;11950;51.230;4.012;2023-08-06T13:31:54;16.30;99.90
23544;DHT22;11950;51.230;4.012;2023-08-06T13:34:20;16.30;99.90
23544;DHT22;11950;51.230;4.012;2023-08-06T13:36:46;16.30;99.90
23544;DHT22;11950;51.230;4.012;2023-08-06T13:39:12;16.30;99.90
23544;DHT22;11950;51.230;4.012;2023-08-06T13:41:42;16.30;99.90
23544;DHT22;11950;51.230;4.012;2023-08-06T13:44:08;16.30;99.90
23544;DHT22;11950;51.230;4.012;2023-08-06T13:46:34;16.30;99.90
23544;DHT22;11950;51.230;4.012;2023-08-06T13:49:01;16.30;99.90
23544;DHT22;11950;51.230;4.012;2023-08-06T13:51:30;16.30;99.90
23544;DHT22;11950;51.230;4.012;2023-08-06T13:53:57;16.40;99.90
23544;DHT22;11950;51.230;4.012;2023-08-06T13:56:23;16.30;99.90
23544;DHT22;11950;51.230;4.012;2023-08-06T13:58:50;16.40;99.90
23544;DHT22;11950;51.230;4.012;2023-08-06T14:01:17;16.40;99.90
23544;DHT22;11950;51.230;4.012;2023-08-06T14:03:44;16.40;99.90
23544;DHT22;11950;51.230;4.012;2023-08-06T14:06:10;16.40;99.90
23544;DHT22;11950;51.230;4.012;2023-08-06T14:08:37;16.40;99.90
23544;DHT22;11950;51.230;4.012;2023-08-06T14:11:03;16.30;99.90
23544;DHT22;11950;51.230;4.012;2023-08-06T14:13:29;16.30;99.90
23544;DHT22;11950;51.230;4.012;2023-08-06T14:15:56;16.30;99.90
23544;DHT22;11950;51.230;4.012;2023-08-06T14:18:22;16.30;99.90
23544;DHT22;11950;51.230;4.012;2023-08-06T14:20:48;16.30;99.90
23544;DHT22;11950;51.230;4.012;2023-08-06T14:23:14;16.30;99.90
23544;DHT22;11950;51.230;4.012;2023-08-06T14:25:41;16.30;99.90
23544;DHT22;11950;51.230;4.012;2023-08-06T14:28:07;16.20;99.90
23544;DHT22;11950;51.230;4.012;2023-08-06T14:30:34;16.30;99.90
23544;DHT22;11950;51.230;4.012;2023-08-06T14:33:00;16.30;99.90
23544;DHT22;11950;51.230;4.012;2023-08-06T14:35:28;16.30;99.90
23544;DHT22;11950;51.230;4.012;2023-08-06T14:37:54;16.30;99.90
23544;DHT22;11950;51.230;4.012;2023-08-06T14:40:20;16.40;99.90
23544;DHT22;11950;51.230;4.012;2023-08-06T14:42:47;16.40;99.90
23544;DHT22;11950;51.230;4.012;2023-08-06T14:45:13;16.40;99.90
23544;DHT22;11950;51.230;4.012;2023-08-06T14:47:39;16.50;99.90
23544;DHT22;11950;51.230;4.012;2023-08-06T14:50:06;16.50;99.90
23544;DHT22;11950;51.230;4.012;2023-08-06T14:52:32;16.60;99.90
23544;DHT22;11950;51.230;4.012;2023-08-06T14:55:00;16.60;99.90
23544;DHT22;11950;51.230;4.012;2023-08-06T14:57:28;16.50;99.90
23544;DHT22;11950;51.230;4.012;2023-08-06T14:59:54;16.60;99.90
23544;DHT22;11950;51.230;4.012;2023-08-06T15:02:21;16.50;99.90
23544;DHT22;11950;51.230;4.012;2023-08-06T15:04:48;16.50;99.90
23544;DHT22;11950;51.230;4.012;2023-08-06T15:07:16;16.60;99.90
23544;DHT22;11950;51.230;4.012;2023-08-06T15:09:42;16.70;99.90
23544;DHT22;11950;51.230;4.012;2023-08-06T15:12:08;16.60;99.90
23544;DHT22;11950;51.230;4.012;2023-08-06T15:14:35;16.70;99.90
23544;DHT22;11950;51.230;4.012;2023-08-06T15:17:01;16.70;99.90
23544;DHT22;11950;51.230;4.012;2023-08-06T15:19:27;16.70;99.90
23544;DHT22;11950;51.230;4.012;2023-08-06T15:21:53;16.70;99.90
23544;DHT22;11950;51.230;4.012;2023-08-06T15:24:21;16.70;99.90
23544;DHT22;11950;51.230;4.012;2023-08-06T15:26:47;16.80;99.90
23544;DHT22;11950;51.230;4.012;2023-08-06T15:29:13;16.90;99.90
23544;DHT22;11950;51.230;4.012;2023-08-06T15:31:40;17.00;99.90
23544;DHT22;11950;51.230;4.012;2023-08-06T15:34:07;17.00;99.90
23544;DHT22;11950;51.230;4.012;2023-08-06T15:36:34;17.00;99.90
23544;DHT22;11950;51.230;4.012;2023-08-06T15:39:01;17.10;99.90